sensor_id;sensor_type;location;lat;lon;timestamp;pressure;altitude;pressure_sealevel;temperature;humidity
11017;BME280;54687;50.800;6.772;2023-02-28T00:00:43;61147.41;;;-144.06;52.91
11017;BME280;54687;50.800;6.772;2023-02-28T00:03:11;61147.41;;;-144.06;52.89
11017;BME280;54687;50.800;6.772;2023-02-28T00:05:38;61151.59;;;-144.06;53.09
11017;BME280;54687;50.800;6.772;2023-02-28T00:08:05;61143.22;;;-144.06;52.92
11017;BME280;54687;50.800;6.772;2023-02-28T00:10:31;61178.84;;;-144.06;53.32
11017;BME280;54687;50.800;6.772;2023-02-28T00:13:00;61141.13;;;-144.06;53.44
11017;BME280;54687;50.800;6.772;2023-02-28T00:15:27;61155.81;;;-144.06;53.24
11017;BME280;54687;50.800;6.772;2023-02-28T00:17:54;61197.72;;;-144.06;53.25
11017;BME280;54687;50.800;6.772;2023-02-28T00:20:22;61199.81;;;-144.06;53.26
11017;BME280;54687;50.800;6.772;2023-02-28T00:22:50;61185.16;;;-144.06;53.18
11017;BME280;54687;50.800;6.772;2023-02-28T00:25:20;61189.34;;;-144.06;53.36
11017;BME280;54687;50.800;6.772;2023-02-28T00:27:47;61180.97;;;-144.06;53.58
11017;BME280;54687;50.800;6.772;2023-02-28T00:30:16;61172.56;;;-144.06;53.45
11017;BME280;54687;50.800;6.772;2023-02-28T00:32:43;61183.06;;;-144.06;53.39
11017;BME280;54687;50.800;6.772;2023-02-28T00:35:10;61176.75;;;-144.06;53.50
11017;BME280;54687;50.800;6.772;2023-02-28T00:37:38;61180.97;;;-144.06;53.43
11017;BME280;54687;50.800;6.772;2023-02-28T00:40:06;61180.97;;;-144.06;53.59
11017;BME280;54687;50.800;6.772;2023-02-28T00:42:34;61172.56;;;-144.06;53.66
11017;BME280;54687;50.800;6.772;2023-02-28T00:45:00;61189.34;;;-144.06;53.74
11017;BME280;54687;50.800;6.772;2023-02-28T00:47:29;61126.44;;;-144.06;53.66
11017;BME280;54687;50.800;6.772;2023-02-28T00:49:55;61139.03;;;-144.06;53.88
11017;BME280;54687;50.800;6.772;2023-02-28T00:52:22;61155.81;;;-144.06;54.00
11017;BME280;54687;50.800;6.772;2023-02-28T00:54:50;61151.59;;;-144.06;53.86
11017;BME280;54687;50.800;6.772;2023-02-28T00:57:16;61172.56;;;-144.06;53.61
11017;BME280;54687;50.800;6.772;2023-02-28T00:59:43;61166.28;;;-144.06;54.06
11017;BME280;54687;50.800;6.772;2023-02-28T01:02:09;61143.22;;;-144.06;54.25
11017;BME280;54687;50.800;6.772;2023-02-28T01:04:36;61191.44;;;-144.06;53.93
11017;BME280;54687;50.800;6.772;2023-02-28T01:07:02;61155.81;;;-144.06;54.05
11017;BME280;54687;50.800;6.772;2023-02-28T01:09:29;61113.88;;;-144.06;54.00
11017;BME280;54687;50.800;6.772;2023-02-28T01:11:57;61130.66;;;-144.06;54.20
11017;BME280;54687;50.800;6.772;2023-02-28T01:14:24;61151.59;;;-144.06;54.43
11017;BME280;54687;50.800;6.772;2023-02-28T01:16:50;61151.59;;;-144.06;54.30
11017;BME280;54687;50.800;6.772;2023-02-28T01:19:17;61168.38;;;-144.06;54.08
11017;BME280;54687;50.800;6.772;2023-02-28T01:21:44;61193.53;;;-144.06;54.33
11017;BME280;54687;50.800;6.772;2023-02-28T01:24:11;61164.19;;;-144.06;54.08
11017;BME280;54687;50.800;6.772;2023-02-28T01:26:37;61180.97;;;-144.06;54.20
11017;BME280;54687;50.800;6.772;2023-02-28T01:29:05;61155.81;;;-144.06;54.15
11017;BME280;54687;50.800;6.772;2023-02-28T01:31:32;61172.56;;;-144.06;54.30
11017;BME280;54687;50.800;6.772;2023-02-28T01:33:58;61172.56;;;-144.06;54.23
11017;BME280;54687;50.800;6.772;2023-02-28T01:36:25;61134.84;;;-144.06;54.23
11017;BME280;54687;50.800;6.772;2023-02-28T01:38:52;61145.31;;;-144.06;54.33
11017;BME280;54687;50.800;6.772;2023-02-28T01:41:21;61176.75;;;-144.06;54.41
11017;BME280;54687;50.800;6.772;2023-02-28T01:44:00;61147.41;;;-144.06;54.40
11017;BME280;54687;50.800;6.772;2023-02-28T01:46:31;61168.38;;;-144.06;54.40
11017;BME280;54687;50.800;6.772;2023-02-28T01:49:02;61143.22;;;-144.06;54.26
11017;BME280;54687;50.800;6.772;2023-02-28T01:51:35;61145.31;;;-144.06;54.39
11017;BME280;54687;50.800;6.772;2023-02-28T01:54:05;61189.34;;;-144.06;54.48
11017;BME280;54687;50.800;6.772;2023-02-28T01:56:41;61149.50;;;-144.06;54.49
11017;BME280;54687;50.800;6.772;2023-02-28T01:59:09;61166.28;;;-144.06;54.67
11017;BME280;54687;50.800;6.772;2023-02-28T02:01:37;61145.31;;;-144.06;54.31
11017;BME280;54687;50.800;6.772;2023-02-28T02:04:04;61214.50;;;-144.06;54.55
11017;BME280;54687;50.800;6.772;2023-02-28T02:06:37;61170.47;;;-144.06;54.72
11017;BME280;54687;50.800;6.772;2023-02-28T02:09:04;61136.94;;;-144.06;54.64
11017;BME280;54687;50.800;6.772;2023-02-28T02:11:32;61183.06;;;-144.06;54.58
11017;BME280;54687;50.800;6.772;2023-02-28T02:14:22;61143.22;;;-144.06;54.49
11017;BME280;54687;50.800;6.772;2023-02-28T02:17:04;61164.19;;;-144.06;54.79
11017;BME280;54687;50.800;6.772;2023-02-28T02:19:50;61130.66;;;-144.06;54.96
11017;BME280;54687;50.800;6.772;2023-02-28T02:22:36;61193.53;;;-144.06;54.88
11017;BME280;54687;50.800;6.772;2023-02-28T02:25:19;61180.97;;;-144.06;54.79
11017;BME280;54687;50.800;6.772;2023-02-28T02:28:09;61162.09;;;-144.06;55.09
11017;BME280;54687;50.800;6.772;2023-02-28T02:30:52;61164.19;;;-144.06;55.33
11017;BME280;54687;50.800;6.772;2023-02-28T02:36:27;61149.50;;;-144.06;55.61
11017;BME280;54687;50.800;6.772;2023-02-28T02:39:02;61155.81;;;-144.06;55.45
11017;BME280;54687;50.800;6.772;2023-02-28T02:41:35;61151.59;;;-144.06;55.31
11017;BME280;54687;50.800;6.772;2023-02-28T02:44:06;61147.41;;;-144.06;55.17
11017;BME280;54687;50.800;6.772;2023-02-28T02:46:35;61193.53;;;-144.06;55.36
11017;BME280;54687;50.800;6.772;2023-02-28T02:49:05;61168.38;;;-144.06;55.28
11017;BME280;54687;50.800;6.772;2023-02-28T02:51:34;61164.19;;;-144.06;55.30
11017;BME280;54687;50.800;6.772;2023-02-28T02:54:06;61174.66;;;-144.06;55.26
11017;BME280;54687;50.800;6.772;2023-02-28T02:56:35;61126.44;;;-144.06;55.07
11017;BME280;54687;50.800;6.772;2023-02-28T02:59:04;61168.38;;;-144.06;55.16
11017;BME280;54687;50.800;6.772;2023-02-28T03:01:34;61170.47;;;-144.06;55.53
11017;BME280;54687;50.800;6.772;2023-02-28T03:04:05;61174.66;;;-144.06;55.48
11017;BME280;54687;50.800;6.772;2023-02-28T03:06:34;61185.16;;;-144.06;55.16
11017;BME280;54687;50.800;6.772;2023-02-28T03:09:02;61130.66;;;-144.06;55.16
11017;BME280;54687;50.800;6.772;2023-02-28T03:11:30;61168.38;;;-144.06;54.99
11017;BME280;54687;50.800;6.772;2023-02-28T03:14:09;61189.34;;;-144.06;55.26
11017;BME280;54687;50.800;6.772;2023-02-28T03:16:52;61172.56;;;-144.06;54.91
11017;BME280;54687;50.800;6.772;2023-02-28T03:19:33;61160.00;;;-144.06;54.84
11017;BME280;54687;50.800;6.772;2023-02-28T03:22:14;61143.22;;;-144.06;54.92
11017;BME280;54687;50.800;6.772;2023-02-28T03:24:45;61162.09;;;-144.06;54.90
11017;BME280;54687;50.800;6.772;2023-02-28T03:27:23;61141.13;;;-144.06;54.94
11017;BME280;54687;50.800;6.772;2023-02-28T03:29:54;61130.66;;;-144.06;54.67
11017;BME280;54687;50.800;6.772;2023-02-28T03:32:28;61155.81;;;-144.06;54.67
11017;BME280;54687;50.800;6.772;2023-02-28T03:34:59;61178.84;;;-144.06;54.46
11017;BME280;54687;50.800;6.772;2023-02-28T03:37:32;61183.06;;;-144.06;54.07
11017;BME280;54687;50.800;6.772;2023-02-28T03:40:04;61180.97;;;-144.06;53.79
11017;BME280;54687;50.800;6.772;2023-02-28T03:42:35;61185.16;;;-144.06;53.68
11017;BME280;54687;50.800;6.772;2023-02-28T03:45:05;61136.94;;;-144.06;53.41
11017;BME280;54687;50.800;6.772;2023-02-28T03:47:38;61176.75;;;-144.06;53.36
11017;BME280;54687;50.800;6.772;2023-02-28T03:50:08;61214.50;;;-144.06;53.30
11017;BME280;54687;50.800;6.772;2023-02-28T03:52:44;61139.03;;;-144.06;53.01
11017;BME280;54687;50.800;6.772;2023-02-28T03:55:15;61147.41;;;-144.06;52.56
11017;BME280;54687;50.800;6.772;2023-02-28T03:57:51;61176.75;;;-144.06;52.53
11017;BME280;54687;50.800;6.772;2023-02-28T04:00:27;61183.06;;;-144.06;52.67
11017;BME280;54687;50.800;6.772;2023-02-28T04:02:57;61151.59;;;-144.06;52.45
11017;BME280;54687;50.800;6.772;2023-02-28T04:05:23;61199.81;;;-144.06;52.30
11017;BME280;54687;50.800;6.772;2023-02-28T04:07:51;61147.41;;;-144.06;52.17
11017;BME280;54687;50.800;6.772;2023-02-28T04:10:19;61185.16;;;-144.06;52.44
11017;BME280;54687;50.800;6.772;2023-02-28T04:12:46;61197.72;;;-144.06;52.07
11017;BME280;54687;50.800;6.772;2023-02-28T04:15:13;61172.56;;;-144.06;52.24
11017;BME280;54687;50.800;6.772;2023-02-28T04:17:39;61153.69;;;-144.06;52.15
11017;BME280;54687;50.800;6.772;2023-02-28T04:20:07;61120.16;;;-144.06;52.20
11017;BME280;54687;50.800;6.772;2023-02-28T04:22:36;61187.25;;;-144.06;52.13
11017;BME280;54687;50.800;6.772;2023-02-28T04:25:05;61162.09;;;-144.06;51.90
11017;BME280;54687;50.800;6.772;2023-02-28T04:27:32;61118.06;;;-144.06;51.91
11017;BME280;54687;50.800;6.772;2023-02-28T04:29:59;61141.13;;;-144.06;51.87
11017;BME280;54687;50.800;6.772;2023-02-28T04:32:25;61113.88;;;-144.06;51.65
11017;BME280;54687;50.800;6.772;2023-02-28T04:34:52;61164.19;;;-144.06;51.63
11017;BME280;54687;50.800;6.772;2023-02-28T04:37:19;61113.88;;;-144.06;51.50
11017;BME280;54687;50.800;6.772;2023-02-28T04:39:45;61170.47;;;-144.06;51.64
11017;BME280;54687;50.800;6.772;2023-02-28T04:42:13;61185.16;;;-144.06;51.79
11017;BME280;54687;50.800;6.772;2023-02-28T04:44:40;61168.38;;;-144.06;51.72
11017;BME280;54687;50.800;6.772;2023-02-28T04:47:06;61172.56;;;-144.06;51.92
11017;BME280;54687;50.800;6.772;2023-02-28T04:49:33;61180.97;;;-144.06;52.09
11017;BME280;54687;50.800;6.772;2023-02-28T04:52:00;61166.28;;;-144.06;51.90
11017;BME280;54687;50.800;6.772;2023-02-28T04:54:27;61130.66;;;-144.06;51.75
11017;BME280;54687;50.800;6.772;2023-02-28T04:56:54;61164.19;;;-144.06;51.99
11017;BME280;54687;50.800;6.772;2023-02-28T04:59:22;61126.44;;;-144.06;52.00
11017;BME280;54687;50.800;6.772;2023-02-28T05:01:49;61155.81;;;-144.06;51.68
11017;BME280;54687;50.800;6.772;2023-02-28T05:04:16;61180.97;;;-144.06;51.82
11017;BME280;54687;50.800;6.772;2023-02-28T05:06:43;61151.59;;;-144.06;52.04
11017;BME280;54687;50.800;6.772;2023-02-28T05:09:09;61180.97;;;-144.06;51.69
11017;BME280;54687;50.800;6.772;2023-02-28T05:11:37;61174.66;;;-144.06;51.70
11017;BME280;54687;50.800;6.772;2023-02-28T05:14:05;61160.00;;;-144.06;51.75
11017;BME280;54687;50.800;6.772;2023-02-28T05:16:34;61101.28;;;-144.06;51.93
11017;BME280;54687;50.800;6.772;2023-02-28T05:19:00;61189.34;;;-144.06;51.68
11017;BME280;54687;50.800;6.772;2023-02-28T05:21:29;61160.00;;;-144.06;51.90
11017;BME280;54687;50.800;6.772;2023-02-28T05:23:57;61134.84;;;-144.06;51.77
11017;BME280;54687;50.800;6.772;2023-02-28T05:26:24;61160.00;;;-144.06;51.48
11017;BME280;54687;50.800;6.772;2023-02-28T05:28:51;61185.16;;;-144.06;51.66
11017;BME280;54687;50.800;6.772;2023-02-28T05:31:18;61151.59;;;-144.06;51.75
11017;BME280;54687;50.800;6.772;2023-02-28T05:33:46;61162.09;;;-144.06;52.11
11017;BME280;54687;50.800;6.772;2023-02-28T05:36:13;61153.69;;;-144.06;52.01
11017;BME280;54687;50.800;6.772;2023-02-28T05:38:39;61136.94;;;-144.06;52.19
11017;BME280;54687;50.800;6.772;2023-02-28T05:41:06;61143.22;;;-144.06;52.24
11017;BME280;54687;50.800;6.772;2023-02-28T05:43:33;61109.69;;;-144.06;52.18
11017;BME280;54687;50.800;6.772;2023-02-28T05:46:02;61157.91;;;-144.06;52.49
11017;BME280;54687;50.800;6.772;2023-02-28T05:48:30;61143.22;;;-144.06;52.54
11017;BME280;54687;50.800;6.772;2023-02-28T05:50:58;61168.38;;;-144.06;52.45
11017;BME280;54687;50.800;6.772;2023-02-28T05:53:24;61164.19;;;-144.06;52.38
11017;BME280;54687;50.800;6.772;2023-02-28T05:55:51;61147.41;;;-144.06;52.94
11017;BME280;54687;50.800;6.772;2023-02-28T05:58:18;61155.81;;;-144.06;53.21
11017;BME280;54687;50.800;6.772;2023-02-28T06:00:45;61139.03;;;-144.06;52.84
11017;BME280;54687;50.800;6.772;2023-02-28T06:03:11;61180.97;;;-144.06;53.17
11017;BME280;54687;50.800;6.772;2023-02-28T06:05:38;61164.19;;;-144.06;53.34
11017;BME280;54687;50.800;6.772;2023-02-28T06:08:06;61130.66;;;-144.06;53.17
11017;BME280;54687;50.800;6.772;2023-02-28T06:10:33;61134.84;;;-144.06;53.36
11017;BME280;54687;50.800;6.772;2023-02-28T06:13:00;61183.06;;;-144.06;53.61
11017;BME280;54687;50.800;6.772;2023-02-28T06:15:28;61130.66;;;-144.06;53.51
11017;BME280;54687;50.800;6.772;2023-02-28T06:17:55;61147.41;;;-144.06;53.73
11017;BME280;54687;50.800;6.772;2023-02-28T06:20:23;61166.28;;;-144.06;53.76
11017;BME280;54687;50.800;6.772;2023-02-28T06:22:50;61101.28;;;-144.06;53.97
11017;BME280;54687;50.800;6.772;2023-02-28T06:25:18;61183.06;;;-144.06;54.15
11017;BME280;54687;50.800;6.772;2023-02-28T06:27:45;61145.31;;;-144.06;54.22
11017;BME280;54687;50.800;6.772;2023-02-28T06:30:12;61134.84;;;-144.06;53.85
11017;BME280;54687;50.800;6.772;2023-02-28T06:32:39;61164.19;;;-144.06;54.06
11017;BME280;54687;50.800;6.772;2023-02-28T06:35:06;61139.03;;;-144.06;54.08
11017;BME280;54687;50.800;6.772;2023-02-28T06:37:33;61134.84;;;-144.06;54.09
11017;BME280;54687;50.800;6.772;2023-02-28T06:39:59;61139.03;;;-144.06;54.61
11017;BME280;54687;50.800;6.772;2023-02-28T06:42:27;61157.91;;;-144.06;53.66
11017;BME280;54687;50.800;6.772;2023-02-28T06:44:56;61120.16;;;-144.06;53.99
11017;BME280;54687;50.800;6.772;2023-02-28T06:47:22;61155.81;;;-144.06;53.48
11017;BME280;54687;50.800;6.772;2023-02-28T06:49:50;61164.19;;;-144.06;53.51
11017;BME280;54687;50.800;6.772;2023-02-28T06:52:16;61130.66;;;-144.06;52.95
11017;BME280;54687;50.800;6.772;2023-02-28T06:54:43;61145.31;;;-144.06;52.96
11017;BME280;54687;50.800;6.772;2023-02-28T06:57:09;61164.19;;;-144.06;52.66
11017;BME280;54687;50.800;6.772;2023-02-28T06:59:37;61160.00;;;-144.06;52.51
11017;BME280;54687;50.800;6.772;2023-02-28T07:02:04;61168.38;;;-144.06;52.63
11017;BME280;54687;50.800;6.772;2023-02-28T07:04:32;61147.41;;;-144.06;52.46
11017;BME280;54687;50.800;6.772;2023-02-28T07:06:59;61180.97;;;-144.06;52.09
11017;BME280;54687;50.800;6.772;2023-02-28T07:09:26;61132.75;;;-144.06;51.92
11017;BME280;54687;50.800;6.772;2023-02-28T07:11:56;61155.81;;;-144.06;51.97
11017;BME280;54687;50.800;6.772;2023-02-28T07:14:22;61139.03;;;-144.06;51.78
11017;BME280;54687;50.800;6.772;2023-02-28T07:16:50;61151.59;;;-144.06;51.40
11017;BME280;54687;50.800;6.772;2023-02-28T07:19:17;61122.25;;;-144.06;51.35
11017;BME280;54687;50.800;6.772;2023-02-28T07:21:43;61147.41;;;-144.06;50.68
11017;BME280;54687;50.800;6.772;2023-02-28T07:24:10;61174.66;;;-144.06;50.38
11017;BME280;54687;50.800;6.772;2023-02-28T07:26:36;61157.91;;;-144.06;50.25
11017;BME280;54687;50.800;6.772;2023-02-28T07:29:03;61157.91;;;-144.06;49.63
11017;BME280;54687;50.800;6.772;2023-02-28T07:31:30;61118.06;;;-144.06;49.30
11017;BME280;54687;50.800;6.772;2023-02-28T07:33:58;61172.56;;;-144.06;48.81
11017;BME280;54687;50.800;6.772;2023-02-28T07:36:25;61180.97;;;-144.06;48.44
11017;BME280;54687;50.800;6.772;2023-02-28T07:38:51;61134.84;;;-144.06;47.97
11017;BME280;54687;50.800;6.772;2023-02-28T07:41:20;61185.16;;;-144.06;47.37
11017;BME280;54687;50.800;6.772;2023-02-28T07:43:48;61147.41;;;-144.06;47.61
11017;BME280;54687;50.800;6.772;2023-02-28T07:46:16;61176.75;;;-144.06;47.45
11017;BME280;54687;50.800;6.772;2023-02-28T07:48:43;61172.56;;;-144.06;47.00
11017;BME280;54687;50.800;6.772;2023-02-28T07:51:11;61155.81;;;-144.06;46.99
11017;BME280;54687;50.800;6.772;2023-02-28T07:53:38;61168.38;;;-144.06;46.39
11017;BME280;54687;50.800;6.772;2023-02-28T07:56:06;61172.56;;;-144.06;46.48
11017;BME280;54687;50.800;6.772;2023-02-28T07:58:32;61160.00;;;-144.06;46.45
11017;BME280;54687;50.800;6.772;2023-02-28T08:01:05;61143.22;;;-144.06;46.54
11017;BME280;54687;50.800;6.772;2023-02-28T08:03:33;61151.59;;;-144.06;46.18
11017;BME280;54687;50.800;6.772;2023-02-28T08:05:59;61132.75;;;-144.06;45.84
11017;BME280;54687;50.800;6.772;2023-02-28T08:08:29;61139.03;;;-144.06;45.69
11017;BME280;54687;50.800;6.772;2023-02-28T08:10:58;61141.13;;;-144.06;45.30
11017;BME280;54687;50.800;6.772;2023-02-28T08:13:24;61143.22;;;-144.06;45.35
11017;BME280;54687;50.800;6.772;2023-02-28T08:15:52;61134.84;;;-144.06;45.35
11017;BME280;54687;50.800;6.772;2023-02-28T08:18:19;61172.56;;;-144.06;44.61
11017;BME280;54687;50.800;6.772;2023-02-28T08:20:45;61147.41;;;-144.06;44.67
11017;BME280;54687;50.800;6.772;2023-02-28T08:23:12;61134.84;;;-144.06;44.62
11017;BME280;54687;50.800;6.772;2023-02-28T08:25:40;61147.41;;;-144.06;44.87
11017;BME280;54687;50.800;6.772;2023-02-28T08:28:06;61168.38;;;-144.06;44.12
11017;BME280;54687;50.800;6.772;2023-02-28T08:30:33;61176.75;;;-144.06;44.47
11017;BME280;54687;50.800;6.772;2023-02-28T08:32:59;61162.09;;;-144.06;43.72
11017;BME280;54687;50.800;6.772;2023-02-28T08:35:27;61113.88;;;-144.06;44.07
11017;BME280;54687;50.800;6.772;2023-02-28T08:37:53;61139.03;;;-144.06;43.70
11017;BME280;54687;50.800;6.772;2023-02-28T08:40:20;61157.91;;;-144.06;42.48
11017;BME280;54687;50.800;6.772;2023-02-28T08:42:48;61134.84;;;-144.06;41.58
11017;BME280;54687;50.800;6.772;2023-02-28T08:45:14;61153.69;;;-144.06;41.26
11017;BME280;54687;50.800;6.772;2023-02-28T08:47:41;61147.41;;;-144.06;40.89
11017;BME280;54687;50.800;6.772;2023-02-28T08:50:09;61139.03;;;-144.06;40.97
11017;BME280;54687;50.800;6.772;2023-02-28T08:52:37;61145.31;;;-144.06;40.48
11017;BME280;54687;50.800;6.772;2023-02-28T08:55:05;61101.28;;;-144.06;40.52
11017;BME280;54687;50.800;6.772;2023-02-28T08:57:32;61122.25;;;-144.06;39.98
11017;BME280;54687;50.800;6.772;2023-02-28T09:00:00;61143.22;;;-144.06;39.60
11017;BME280;54687;50.800;6.772;2023-02-28T09:02:29;61187.25;;;-144.06;39.91
11017;BME280;54687;50.800;6.772;2023-02-28T09:04:56;61143.22;;;-144.06;39.60
11017;BME280;54687;50.800;6.772;2023-02-28T09:07:23;61109.69;;;-144.06;39.16
11017;BME280;54687;50.800;6.772;2023-02-28T09:09:50;61143.22;;;-144.06;38.91
11017;BME280;54687;50.800;6.772;2023-02-28T09:12:20;61134.84;;;-144.06;39.25
11017;BME280;54687;50.800;6.772;2023-02-28T09:14:46;61122.25;;;-144.06;39.20
11017;BME280;54687;50.800;6.772;2023-02-28T09:17:14;61084.53;;;-144.06;38.94
11017;BME280;54687;50.800;6.772;2023-02-28T09:19:41;61101.28;;;-144.06;38.09
11017;BME280;54687;50.800;6.772;2023-02-28T09:22:08;61130.66;;;-144.06;38.46
11017;BME280;54687;50.800;6.772;2023-02-28T09:24:35;61147.41;;;-144.06;38.23
11017;BME280;54687;50.800;6.772;2023-02-28T09:27:02;61166.28;;;-144.06;38.25
11017;BME280;54687;50.800;6.772;2023-02-28T09:29:28;61105.50;;;-144.06;38.43
11017;BME280;54687;50.800;6.772;2023-02-28T09:31:55;61105.50;;;-144.06;38.01
11017;BME280;54687;50.800;6.772;2023-02-28T09:34:25;61090.81;;;-144.06;37.96
11017;BME280;54687;50.800;6.772;2023-02-28T09:36:52;61139.03;;;-144.06;38.02
11017;BME280;54687;50.800;6.772;2023-02-28T09:39:20;61105.50;;;-144.06;37.90
11017;BME280;54687;50.800;6.772;2023-02-28T09:41:48;61101.28;;;-144.06;37.67
11017;BME280;54687;50.800;6.772;2023-02-28T09:44:22;61153.69;;;-144.06;37.36
11017;BME280;54687;50.800;6.772;2023-02-28T09:46:54;61067.75;;;-144.06;37.87
11017;BME280;54687;50.800;6.772;2023-02-28T09:49:25;61145.31;;;-144.06;37.62
11017;BME280;54687;50.800;6.772;2023-02-28T09:51:58;61128.53;;;-144.06;37.50
11017;BME280;54687;50.800;6.772;2023-02-28T09:54:28;61141.13;;;-144.06;37.18
11017;BME280;54687;50.800;6.772;2023-02-28T09:56:59;61092.91;;;-144.06;37.05
11017;BME280;54687;50.800;6.772;2023-02-28T09:59:39;61099.19;;;-144.06;37.20
11017;BME280;54687;50.800;6.772;2023-02-28T10:02:20;61134.84;;;-144.06;36.79
11017;BME280;54687;50.800;6.772;2023-02-28T10:04:54;61084.53;;;-144.06;36.91
11017;BME280;54687;50.800;6.772;2023-02-28T10:07:37;61132.75;;;-144.06;36.56
11017;BME280;54687;50.800;6.772;2023-02-28T10:10:17;61139.03;;;-144.06;36.92
11017;BME280;54687;50.800;6.772;2023-02-28T10:12:47;61071.94;;;-144.06;37.05
11017;BME280;54687;50.800;6.772;2023-02-28T10:15:15;61101.28;;;-144.06;36.42
11017;BME280;54687;50.800;6.772;2023-02-28T10:17:44;61113.88;;;-144.06;36.13
11017;BME280;54687;50.800;6.772;2023-02-28T10:20:19;61105.50;;;-144.06;36.50
11017;BME280;54687;50.800;6.772;2023-02-28T10:22:52;61136.94;;;-144.06;36.84
11017;BME280;54687;50.800;6.772;2023-02-28T10:25:23;61132.75;;;-144.06;36.61
11017;BME280;54687;50.800;6.772;2023-02-28T10:27:52;61130.66;;;-144.06;36.03
11017;BME280;54687;50.800;6.772;2023-02-28T10:30:21;61147.41;;;-144.06;36.09
11017;BME280;54687;50.800;6.772;2023-02-28T10:32:50;61118.06;;;-144.06;35.94
11017;BME280;54687;50.800;6.772;2023-02-28T10:35:21;61151.59;;;-144.06;36.38
11017;BME280;54687;50.800;6.772;2023-02-28T10:37:52;61120.16;;;-144.06;35.68
11017;BME280;54687;50.800;6.772;2023-02-28T10:40:30;61084.53;;;-144.06;35.71
11017;BME280;54687;50.800;6.772;2023-02-28T10:43:00;61105.50;;;-144.06;36.20
11017;BME280;54687;50.800;6.772;2023-02-28T10:45:28;61113.88;;;-144.06;35.69
11017;BME280;54687;50.800;6.772;2023-02-28T10:47:58;61071.94;;;-144.06;35.89
11017;BME280;54687;50.800;6.772;2023-02-28T10:50:33;61139.03;;;-144.06;35.39
11017;BME280;54687;50.800;6.772;2023-02-28T10:53:17;61109.69;;;-144.06;35.46
11017;BME280;54687;50.800;6.772;2023-02-28T10:55:56;61126.44;;;-144.06;35.71
11017;BME280;54687;50.800;6.772;2023-02-28T10:58:23;61139.03;;;-144.06;35.84
11017;BME280;54687;50.800;6.772;2023-02-28T11:00:51;61124.34;;;-144.06;35.41
11017;BME280;54687;50.800;6.772;2023-02-28T11:03:30;61097.09;;;-144.06;35.91
11017;BME280;54687;50.800;6.772;2023-02-28T11:06:04;61139.03;;;-144.06;35.69
11017;BME280;54687;50.800;6.772;2023-02-28T11:08:32;61088.72;;;-144.06;35.47
11017;BME280;54687;50.800;6.772;2023-02-28T11:11:03;61055.19;;;-144.06;35.04
11017;BME280;54687;50.800;6.772;2023-02-28T11:13:33;61095.00;;;-144.06;35.51
11017;BME280;54687;50.800;6.772;2023-02-28T11:16:02;61136.94;;;-144.06;35.53
11017;BME280;54687;50.800;6.772;2023-02-28T11:18:39;61113.88;;;-144.06;35.03
11017;BME280;54687;50.800;6.772;2023-02-28T11:21:09;61069.84;;;-144.06;35.13
11017;BME280;54687;50.800;6.772;2023-02-28T11:23:41;61122.25;;;-144.06;34.95
11017;BME280;54687;50.800;6.772;2023-02-28T11:26:09;61076.13;;;-144.06;34.44
11017;BME280;54687;50.800;6.772;2023-02-28T11:28:39;61084.53;;;-144.06;34.46
11017;BME280;54687;50.800;6.772;2023-02-28T11:31:16;61122.25;;;-144.06;34.36
11017;BME280;54687;50.800;6.772;2023-02-28T11:33:46;61141.13;;;-144.06;34.84
11017;BME280;54687;50.800;6.772;2023-02-28T11:36:19;61086.63;;;-144.06;35.23
11017;BME280;54687;50.800;6.772;2023-02-28T11:38:47;61130.66;;;-144.06;35.41
11017;BME280;54687;50.800;6.772;2023-02-28T11:41:28;61071.94;;;-144.06;34.93
11017;BME280;54687;50.800;6.772;2023-02-28T11:44:08;61092.91;;;-144.06;34.99
11017;BME280;54687;50.800;6.772;2023-02-28T11:46:40;61113.88;;;-144.06;34.81
11017;BME280;54687;50.800;6.772;2023-02-28T11:49:21;61078.25;;;-144.06;34.42
11017;BME280;54687;50.800;6.772;2023-02-28T11:51:59;61118.06;;;-144.06;34.04
11017;BME280;54687;50.800;6.772;2023-02-28T11:54:41;61136.94;;;-144.06;34.09
11017;BME280;54687;50.800;6.772;2023-02-28T11:57:24;61095.00;;;-144.06;34.77
11017;BME280;54687;50.800;6.772;2023-02-28T12:00:01;61071.94;;;-144.06;33.53
11017;BME280;54687;50.800;6.772;2023-02-28T12:02:34;61122.25;;;-144.06;33.98
11017;BME280;54687;50.800;6.772;2023-02-28T12:05:18;61107.59;;;-144.06;34.07
11017;BME280;54687;50.800;6.772;2023-02-28T12:07:54;61076.13;;;-144.06;33.95
11017;BME280;54687;50.800;6.772;2023-02-28T12:10:25;61036.31;;;-144.06;33.86
11017;BME280;54687;50.800;6.772;2023-02-28T12:13:03;61059.38;;;-144.06;33.68
11017;BME280;54687;50.800;6.772;2023-02-28T12:15:44;61086.63;;;-144.06;33.05
11017;BME280;54687;50.800;6.772;2023-02-28T12:18:27;61097.09;;;-144.06;32.83
11017;BME280;54687;50.800;6.772;2023-02-28T12:21:04;61107.59;;;-144.06;33.25
11017;BME280;54687;50.800;6.772;2023-02-28T12:23:50;61086.63;;;-144.06;32.89
11017;BME280;54687;50.800;6.772;2023-02-28T12:26:29;61097.09;;;-144.06;32.86
11017;BME280;54687;50.800;6.772;2023-02-28T12:29:02;61109.69;;;-144.06;33.03
11017;BME280;54687;50.800;6.772;2023-02-28T12:31:35;61088.72;;;-144.06;33.15
11017;BME280;54687;50.800;6.772;2023-02-28T12:34:05;61113.88;;;-144.06;33.13
11017;BME280;54687;50.800;6.772;2023-02-28T12:36:35;61113.88;;;-144.06;33.31
11017;BME280;54687;50.800;6.772;2023-02-28T12:39:08;61134.84;;;-144.06;33.10
11017;BME280;54687;50.800;6.772;2023-02-28T12:41:41;61113.88;;;-144.06;33.16
11017;BME280;54687;50.800;6.772;2023-02-28T12:44:11;61134.84;;;-144.06;33.26
11017;BME280;54687;50.800;6.772;2023-02-28T12:46:42;61080.34;;;-144.06;33.68
11017;BME280;54687;50.800;6.772;2023-02-28T12:49:13;61088.72;;;-144.06;33.50
11017;BME280;54687;50.800;6.772;2023-02-28T12:51:43;61086.63;;;-144.06;33.85
11017;BME280;54687;50.800;6.772;2023-02-28T12:54:19;61126.44;;;-144.06;33.24
11017;BME280;54687;50.800;6.772;2023-02-28T12:56:53;61071.94;;;-144.06;33.89